createdAt,value
2023-05-09T00:02:22.397Z,17.60
2023-05-09T00:04:51.611Z,17.50
2023-05-09T00:07:20.106Z,17.50
2023-05-09T00:09:48.571Z,17.50
2023-05-09T00:12:18.418Z,17.50
2023-05-09T00:14:48.363Z,17.50
2023-05-09T00:17:17.135Z,17.50
2023-05-09T00:19:45.613Z,17.50
2023-05-09T00:22:14.069Z,17.50
2023-05-09T00:24:42.650Z,17.50
2023-05-09T00:27:11.126Z,17.50
2023-05-09T00:29:40.930Z,17.50
2023-05-09T00:32:09.453Z,17.50
2023-05-09T00:34:37.917Z,17.40
2023-05-09T00:37:07.172Z,17.30
2023-05-09T00:39:35.604Z,17.40
2023-05-09T00:42:04.824Z,17.40
2023-05-09T00:44:33.263Z,17.40
2023-05-09T00:47:03.088Z,17.40
2023-05-09T00:49:31.586Z,17.40
2023-05-09T00:52:00.046Z,17.40
2023-05-09T00:54:28.418Z,17.40
2023-05-09T00:56:56.860Z,17.30
2023-05-09T00:59:25.440Z,17.30
2023-05-09T01:01:53.856Z,17.30
2023-05-09T01:04:23.903Z,17.30
2023-05-09T01:06:57.200Z,17.20
2023-05-09T01:09:27.909Z,17.30
2023-05-09T01:12:03.672Z,17.20
2023-05-09T01:14:40.728Z,17.30
2023-05-09T01:17:12.185Z,17.30
2023-05-09T01:19:58.414Z,17.30
2023-05-09T01:22:30.414Z,17.30
2023-05-09T01:25:05.305Z,17.30
2023-05-09T01:27:38.682Z,17.30
2023-05-09T01:30:10.320Z,17.20
2023-05-09T01:32:39.469Z,17.30
2023-05-09T01:35:09.686Z,17.20
2023-05-09T01:37:40.848Z,17.20
2023-05-09T01:40:11.462Z,17.20
2023-05-09T01:42:42.374Z,17.30
2023-05-09T01:45:14.037Z,17.30
2023-05-09T01:47:43.302Z,17.40
2023-05-09T01:50:12.882Z,17.30
2023-05-09T01:52:41.761Z,17.30
2023-05-09T01:55:10.774Z,17.30
2023-05-09T01:57:40.130Z,17.30
2023-05-09T02:00:10.301Z,17.30
2023-05-09T02:02:40.311Z,17.30
2023-05-09T02:05:10.641Z,17.40
2023-05-09T02:07:39.140Z,17.40
2023-05-09T02:10:08.765Z,17.30
2023-05-09T02:12:37.360Z,17.30
2023-05-09T02:15:06.239Z,17.30
2023-05-09T02:17:34.808Z,17.40
2023-05-09T02:20:05.669Z,17.30
2023-05-09T02:22:34.046Z,17.30
2023-05-09T02:25:04.966Z,17.30
2023-05-09T02:27:33.827Z,17.30
2023-05-09T02:30:04.323Z,17.30
2023-05-09T02:32:35.263Z,17.30
2023-05-09T02:35:06.255Z,17.20
2023-05-09T02:37:34.893Z,17.30
2023-05-09T02:40:05.205Z,17.20
2023-05-09T02:42:33.596Z,17.20
2023-05-09T02:45:02.085Z,17.20
2023-05-09T02:47:30.676Z,17.20
2023-05-09T02:49:59.150Z,17.20
2023-05-09T02:52:28.944Z,17.20
2023-05-09T02:54:57.409Z,17.20
2023-05-09T02:57:25.858Z,17.20
2023-05-09T02:59:54.249Z,17.30
2023-05-09T03:02:23.835Z,17.20
2023-05-09T03:04:52.300Z,17.20
2023-05-09T03:07:20.739Z,17.30
2023-05-09T03:09:50.573Z,17.30
2023-05-09T03:12:18.997Z,17.40
2023-05-09T03:14:47.833Z,17.40
2023-05-09T03:17:17.464Z,17.40
2023-05-09T03:19:45.802Z,17.40
2023-05-09T03:22:14.158Z,17.40
2023-05-09T03:24:42.610Z,17.50
2023-05-09T03:27:12.949Z,17.40
2023-05-09T03:29:41.323Z,17.40
2023-05-09T03:32:09.715Z,17.40
2023-05-09T03:34:38.172Z,17.30
2023-05-09T03:37:06.629Z,17.40
2023-05-09T03:39:35.067Z,17.20
2023-05-09T03:42:03.421Z,17.20
2023-05-09T03:44:33.216Z,17.20
2023-05-09T03:47:01.646Z,17.30
2023-05-09T03:49:30.037Z,17.30
2023-05-09T03:51:58.584Z,17.30
2023-05-09T03:54:27.025Z,17.30
2023-05-09T03:56:55.524Z,17.30
2023-05-09T03:59:23.940Z,17.30
2023-05-09T04:01:53.930Z,17.20
2023-05-09T04:04:22.363Z,17.20
2023-05-09T04:06:50.794Z,17.20
2023-05-09T04:09:19.992Z,17.20
2023-05-09T04:11:48.406Z,17.20
2023-05-09T04:14:16.906Z,17.20
2023-05-09T04:16:45.422Z,17.20
2023-05-09T04:19:15.322Z,17.30
2023-05-09T04:21:43.745Z,17.30
2023-05-09T04:24:12.300Z,17.40
2023-05-09T04:26:41.091Z,17.40
2023-05-09T04:29:09.649Z,17.40
2023-05-09T04:31:38.199Z,17.50
2023-05-09T04:34:06.725Z,17.50
2023-05-09T04:36:38.529Z,17.50
2023-05-09T04:39:07.843Z,17.40
2023-05-09T04:41:36.245Z,17.40
2023-05-09T04:44:05.269Z,17.40
2023-05-09T04:46:33.747Z,17.40
2023-05-09T04:49:02.237Z,17.40
2023-05-09T04:51:30.687Z,17.40
2023-05-09T04:54:00.551Z,17.30
2023-05-09T04:56:28.980Z,17.30
2023-05-09T04:58:57.435Z,17.30
2023-05-09T05:01:26.803Z,17.30
2023-05-09T05:03:55.624Z,17.40
2023-05-09T05:06:23.993Z,17.50
2023-05-09T05:08:52.354Z,17.30
2023-05-09T05:11:22.143Z,17.30
2023-05-09T05:13:50.537Z,17.30
2023-05-09T05:16:19.008Z,17.30
2023-05-09T05:18:47.445Z,17.50
2023-05-09T05:21:16.659Z,17.50
2023-05-09T05:23:45.130Z,17.60
2023-05-09T05:26:13.553Z,17.70
2023-05-09T05:28:43.390Z,17.80
2023-05-09T05:31:11.765Z,18.00
2023-05-09T05:33:40.176Z,18.10
2023-05-09T05:36:08.885Z,18.10
2023-05-09T05:38:37.330Z,18.10
2023-05-09T05:41:05.737Z,18.10
2023-05-09T05:43:34.130Z,18.10
2023-05-09T05:46:04.966Z,18.20
2023-05-09T05:48:33.563Z,18.40
2023-05-09T05:51:01.952Z,18.40
2023-05-09T05:53:31.518Z,18.30
2023-05-09T05:56:01.201Z,18.30
2023-05-09T05:58:29.666Z,18.40
2023-05-09T06:00:58.089Z,18.40
2023-05-09T06:03:28.006Z,18.40
2023-05-09T06:05:56.999Z,18.40
2023-05-09T06:08:25.531Z,18.50
2023-05-09T06:10:54.170Z,18.40
2023-05-09T06:13:22.691Z,18.50
2023-05-09T06:15:51.319Z,18.40
2023-05-09T06:18:19.742Z,18.40
2023-05-09T06:20:49.509Z,18.50
2023-05-09T06:23:22.194Z,18.60
2023-05-09T06:25:50.634Z,18.40
2023-05-09T06:28:19.050Z,18.30
2023-05-09T06:30:47.547Z,18.50
2023-05-09T06:33:15.944Z,18.50
2023-05-09T06:35:44.348Z,18.50
2023-05-09T06:38:14.218Z,18.50
2023-05-09T06:40:42.796Z,18.40
2023-05-09T06:43:11.396Z,18.50
2023-05-09T06:45:39.804Z,18.60
2023-05-09T06:48:08.232Z,18.70
2023-05-09T06:50:36.663Z,18.70
2023-05-09T06:53:05.137Z,18.70
2023-05-09T06:55:35.010Z,18.60
2023-05-09T06:58:04.258Z,18.70
2023-05-09T07:00:32.707Z,18.80
2023-05-09T07:03:01.211Z,18.80
2023-05-09T07:05:29.758Z,18.80
2023-05-09T07:07:58.305Z,18.90
2023-05-09T07:10:26.887Z,18.80
2023-05-09T07:12:56.717Z,18.80
2023-05-09T07:15:39.889Z,18.70
2023-05-09T07:18:10.248Z,18.60
2023-05-09T07:20:38.707Z,18.70
2023-05-09T07:23:07.081Z,18.80
2023-05-09T07:25:35.425Z,18.90
2023-05-09T07:28:05.483Z,18.90
2023-05-09T07:30:33.900Z,18.70
2023-05-09T07:33:02.569Z,18.70
2023-05-09T07:35:31.286Z,18.70
2023-05-09T07:37:59.694Z,18.70
2023-05-09T07:40:28.144Z,18.60
2023-05-09T07:42:56.944Z,18.60
2023-05-09T07:45:26.837Z,18.70
2023-05-09T07:47:55.432Z,18.70
2023-05-09T07:50:23.924Z,18.80
2023-05-09T07:52:52.884Z,18.80
2023-05-09T07:55:21.379Z,18.90
2023-05-09T07:57:49.757Z,18.90
2023-05-09T08:00:23.409Z,18.90
2023-05-09T08:02:54.131Z,18.90
2023-05-09T08:05:22.706Z,18.90
2023-05-09T08:07:51.118Z,19.00
2023-05-09T08:10:19.516Z,18.90
2023-05-09T08:12:47.942Z,18.80
2023-05-09T08:15:16.569Z,18.70
2023-05-09T08:17:45.310Z,18.70
2023-05-09T08:20:15.617Z,18.60
2023-05-09T08:22:44.030Z,18.70
2023-05-09T08:25:14.046Z,18.70
2023-05-09T08:27:42.691Z,18.60
2023-05-09T08:30:11.797Z,18.70
2023-05-09T08:32:40.339Z,18.60
2023-05-09T08:35:09.927Z,18.60
2023-05-09T08:37:39.923Z,18.70
2023-05-09T08:40:09.168Z,18.90
2023-05-09T08:42:38.290Z,19.00
2023-05-09T08:45:10.592Z,19.10
2023-05-09T08:47:39.324Z,19.20
2023-05-09T08:50:08.660Z,19.10
2023-05-09T08:52:37.143Z,19.10
2023-05-09T08:55:07.370Z,19.00
2023-05-09T08:57:36.349Z,19.00
2023-05-09T09:00:06.598Z,19.10
2023-05-09T09:02:37.153Z,19.20
2023-05-09T09:07:37.788Z,19.50
2023-05-09T09:10:08.969Z,19.70
2023-05-09T09:12:38.248Z,19.80
2023-05-09T09:15:07.119Z,19.90
2023-05-09T09:17:38.764Z,20.00
2023-05-09T09:20:10.842Z,20.10
2023-05-09T09:22:42.989Z,20.10
2023-05-09T09:25:12.957Z,20.10
2023-05-09T09:27:41.994Z,19.80
2023-05-09T09:30:11.516Z,19.90
2023-05-09T09:32:40.200Z,19.70
2023-05-09T09:35:09.815Z,19.90
2023-05-09T09:37:40.096Z,20.00
2023-05-09T09:40:09.749Z,20.10
2023-05-09T09:42:46.127Z,20.00
2023-05-09T09:45:15.502Z,20.20
2023-05-09T09:47:44.318Z,20.30
2023-05-09T09:50:14.204Z,20.30
2023-05-09T09:52:50.072Z,20.20
2023-05-09T09:55:18.730Z,20.20
2023-05-09T09:57:48.726Z,20.10
2023-05-09T10:00:18.461Z,19.80
2023-05-09T10:02:54.820Z,19.60
2023-05-09T10:05:23.728Z,19.50
2023-05-09T10:07:55.870Z,19.60
2023-05-09T10:10:24.594Z,19.70
2023-05-09T10:12:55.352Z,19.90
2023-05-09T10:15:23.981Z,20.00
2023-05-09T10:17:55.133Z,20.00
2023-05-09T10:20:24.043Z,20.00
2023-05-09T10:22:54.714Z,20.10
2023-05-09T10:25:23.914Z,19.80
2023-05-09T10:27:54.729Z,19.60
2023-05-09T10:30:28.791Z,19.50
2023-05-09T10:32:59.738Z,19.60
2023-05-09T10:35:29.192Z,19.60
2023-05-09T10:37:58.165Z,19.60
2023-05-09T10:40:27.169Z,19.90
2023-05-09T10:42:55.677Z,19.80
2023-05-09T10:45:25.686Z,20.00
2023-05-09T10:47:56.681Z,19.80
2023-05-09T10:50:25.334Z,20.00
2023-05-09T10:53:06.157Z,19.90
2023-05-09T10:55:37.698Z,19.80
2023-05-09T10:58:19.532Z,19.60
2023-05-09T11:00:49.801Z,19.60
2023-05-09T11:03:19.622Z,19.50
2023-05-09T11:05:48.862Z,19.70
2023-05-09T11:08:25.256Z,19.40
2023-05-09T11:10:54.060Z,19.50
2023-05-09T11:13:23.992Z,19.60
2023-05-09T11:16:07.290Z,19.60
2023-05-09T11:18:50.595Z,19.40
2023-05-09T11:21:20.477Z,19.50
2023-05-09T11:23:49.755Z,19.60
2023-05-09T11:26:18.647Z,19.80
2023-05-09T11:28:53.353Z,19.90
2023-05-09T11:31:21.851Z,20.00
2023-05-09T11:33:58.372Z,20.00
2023-05-09T11:36:32.000Z,20.00
2023-05-09T11:39:04.349Z,20.00
2023-05-09T11:41:32.803Z,20.10
2023-05-09T11:44:01.345Z,20.20
2023-05-09T11:46:29.983Z,20.20
2023-05-09T11:49:00.022Z,20.30
2023-05-09T11:51:29.154Z,20.40
2023-05-09T11:53:57.650Z,20.50
2023-05-09T11:56:26.056Z,20.30
2023-05-09T11:58:54.491Z,20.20
2023-05-09T12:01:23.633Z,19.80
2023-05-09T12:03:52.271Z,19.90
2023-05-09T12:06:22.183Z,20.00
2023-05-09T12:08:50.761Z,20.10
2023-05-09T12:11:19.127Z,20.20
2023-05-09T12:13:48.543Z,20.30
2023-05-09T12:16:17.697Z,20.10
2023-05-09T12:18:47.379Z,19.80
2023-05-09T12:21:15.971Z,19.90
2023-05-09T12:23:47.454Z,19.80
2023-05-09T12:26:16.792Z,19.80
2023-05-09T12:28:45.382Z,19.90
2023-05-09T12:31:14.152Z,20.10
2023-05-09T12:33:42.690Z,20.00
2023-05-09T12:36:11.754Z,20.00
2023-05-09T12:38:40.482Z,19.60
2023-05-09T12:41:22.444Z,19.70
2023-05-09T12:44:00.182Z,19.70
2023-05-09T12:46:28.697Z,19.90
2023-05-09T12:48:57.521Z,20.10
2023-05-09T12:51:26.064Z,19.90
2023-05-09T12:53:54.476Z,20.10
2023-05-09T12:56:24.508Z,20.00
2023-05-09T12:58:53.643Z,20.10
2023-05-09T13:01:22.627Z,20.20
2023-05-09T13:03:54.242Z,20.10
2023-05-09T13:06:24.166Z,20.10
2023-05-09T13:09:00.636Z,20.10
2023-05-09T13:11:30.703Z,19.90
2023-05-09T13:13:59.185Z,20.10
2023-05-09T13:16:27.783Z,20.00
2023-05-09T13:18:56.199Z,20.10
2023-05-09T13:21:24.602Z,20.10
2023-05-09T13:23:53.191Z,20.00
2023-05-09T13:26:21.666Z,19.80
2023-05-09T13:28:51.526Z,19.80
2023-05-09T13:31:20.226Z,19.90
2023-05-09T13:33:51.436Z,20.10
2023-05-09T13:36:20.386Z,20.10
2023-05-09T13:38:48.866Z,20.20
2023-05-09T13:41:20.920Z,20.10
2023-05-09T13:43:49.375Z,20.00
2023-05-09T13:46:19.226Z,20.10
2023-05-09T13:48:48.021Z,20.20
2023-05-09T13:51:16.454Z,20.20
2023-05-09T13:53:44.900Z,20.30
2023-05-09T13:56:14.003Z,20.10
2023-05-09T13:58:42.438Z,20.00
2023-05-09T14:01:11.381Z,19.90
2023-05-09T14:03:41.785Z,19.90
2023-05-09T14:06:12.993Z,19.80
2023-05-09T14:08:42.513Z,19.90
2023-05-09T14:11:12.656Z,20.00
2023-05-09T14:13:41.111Z,20.00
2023-05-09T14:16:09.629Z,20.10
2023-05-09T14:18:38.063Z,19.90
2023-05-09T14:21:08.105Z,20.00
2023-05-09T14:23:36.585Z,20.00
2023-05-09T14:26:05.016Z,19.80
2023-05-09T14:28:33.605Z,19.60
2023-05-09T14:31:02.528Z,19.70
2023-05-09T14:33:30.949Z,19.60
2023-05-09T14:36:01.199Z,19.60
2023-05-09T14:38:33.038Z,19.60
2023-05-09T14:41:02.371Z,19.60
2023-05-09T14:43:30.810Z,19.50
2023-05-09T14:45:59.290Z,19.60
2023-05-09T14:48:27.721Z,19.70
2023-05-09T14:50:57.092Z,19.60
2023-05-09T14:53:25.501Z,19.80
2023-05-09T14:55:55.572Z,19.60
2023-05-09T14:58:24.257Z,19.50
2023-05-09T15:00:53.621Z,19.60
2023-05-09T15:03:22.179Z,19.60
2023-05-09T15:05:50.722Z,19.60
2023-05-09T15:08:19.179Z,19.60
2023-05-09T15:10:48.222Z,19.60
2023-05-09T15:13:18.082Z,19.60
2023-05-09T15:15:46.543Z,19.70
2023-05-09T15:18:16.650Z,19.60
2023-05-09T15:20:45.153Z,19.70
2023-05-09T15:23:13.735Z,19.80
2023-05-09T15:25:42.541Z,19.80
2023-05-09T15:28:10.969Z,19.70
2023-05-09T15:30:41.704Z,19.80
2023-05-09T15:33:10.435Z,19.80
2023-05-09T15:35:38.899Z,19.80
2023-05-09T15:38:07.929Z,19.80
2023-05-09T15:40:36.336Z,19.80
2023-05-09T15:43:08.361Z,19.70
2023-05-09T15:45:38.001Z,19.80
2023-05-09T15:48:08.076Z,19.70
2023-05-09T15:50:36.529Z,19.70
2023-05-09T15:53:04.972Z,19.70
2023-05-09T15:55:33.489Z,19.60
2023-05-09T15:58:02.778Z,19.60
2023-05-09T16:00:31.225Z,19.50
2023-05-09T16:02:59.772Z,19.60
2023-05-09T16:05:29.683Z,19.70
2023-05-09T16:07:58.226Z,19.60
2023-05-09T16:10:27.005Z,19.60
2023-05-09T16:12:55.435Z,19.60
2023-05-09T16:15:23.986Z,19.70
2023-05-09T16:17:52.494Z,19.50
2023-05-09T16:20:20.915Z,19.50
2023-05-09T16:22:50.768Z,19.40
2023-05-09T16:25:19.272Z,19.30
2023-05-09T16:27:47.691Z,19.20
2023-05-09T16:30:16.885Z,19.10
2023-05-09T16:32:45.597Z,19.10
2023-05-09T16:35:14.028Z,19.10
2023-05-09T16:37:42.894Z,19.20
2023-05-09T16:40:13.836Z,19.10
2023-05-09T16:42:43.008Z,19.10
2023-05-09T16:45:11.836Z,19.10
2023-05-09T16:47:40.251Z,19.00
2023-05-09T16:50:10.375Z,19.00
2023-05-09T16:52:38.905Z,19.10
2023-05-09T16:55:07.777Z,19.10
2023-05-09T16:57:37.688Z,19.10
2023-05-09T17:00:07.897Z,19.00
2023-05-09T17:02:37.285Z,19.00
2023-05-09T17:05:06.106Z,19.00
2023-05-09T17:07:34.610Z,19.00
2023-05-09T17:10:03.974Z,19.10
2023-05-09T17:12:32.365Z,19.10
2023-05-09T17:15:02.269Z,19.10
2023-05-09T17:17:30.876Z,19.10
2023-05-09T17:20:00.973Z,19.10
2023-05-09T17:22:29.473Z,18.90
2023-05-09T17:24:57.915Z,18.80
2023-05-09T17:27:27.125Z,18.70
2023-05-09T17:29:55.571Z,18.70
2023-05-09T17:32:25.575Z,18.60
2023-05-09T17:34:54.424Z,18.60
2023-05-09T17:37:22.853Z,18.50
2023-05-09T17:39:51.684Z,18.40
2023-05-09T17:42:20.053Z,18.40
2023-05-09T17:44:48.469Z,18.30
2023-05-09T17:47:16.864Z,18.30
2023-05-09T17:49:46.755Z,18.20
2023-05-09T17:52:15.210Z,18.20
2023-05-09T17:54:43.786Z,18.10
2023-05-09T17:57:12.237Z,18.20
2023-05-09T17:59:41.589Z,18.20
2023-05-09T18:02:10.101Z,18.10
2023-05-09T18:04:38.480Z,18.10
2023-05-09T18:07:09.395Z,18.10
2023-05-09T18:09:37.846Z,18.00
2023-05-09T18:12:06.652Z,18.00
2023-05-09T18:14:35.100Z,18.00
2023-05-09T18:17:03.515Z,18.00
2023-05-09T18:19:31.954Z,18.00
2023-05-09T18:22:00.550Z,17.90
2023-05-09T18:24:30.371Z,18.00
2023-05-09T18:26:58.809Z,18.00
2023-05-09T18:29:27.278Z,18.00
2023-05-09T18:34:24.382Z,18.00
2023-05-09T18:36:53.291Z,18.00
2023-05-09T18:39:21.728Z,18.00
2023-05-09T18:41:51.925Z,18.10
2023-05-09T18:44:20.349Z,18.10
2023-05-09T18:46:48.862Z,18.20
2023-05-09T18:49:17.541Z,18.20
2023-05-09T18:51:45.979Z,18.20
2023-05-09T18:54:14.392Z,18.20
2023-05-09T18:56:43.102Z,18.20
2023-05-09T18:59:16.306Z,18.20
2023-05-09T19:01:44.990Z,18.20
2023-05-09T19:04:14.188Z,18.20
2023-05-09T19:06:43.017Z,18.30
2023-05-09T19:09:11.618Z,18.30
2023-05-09T19:11:40.055Z,18.30
2023-05-09T19:14:08.546Z,18.30
2023-05-09T19:16:38.373Z,18.30
2023-05-09T19:19:06.821Z,18.40
2023-05-09T19:21:35.782Z,18.30
2023-05-09T19:24:04.702Z,18.30
2023-05-09T19:26:33.265Z,18.30
2023-05-09T19:29:04.148Z,18.30
2023-05-09T19:31:32.727Z,18.30
2023-05-09T19:34:02.565Z,18.20
2023-05-09T19:36:31.126Z,18.20
2023-05-09T19:38:59.579Z,18.20
2023-05-09T19:41:27.955Z,18.20
2023-05-09T19:43:56.336Z,18.20
2023-05-09T19:46:24.828Z,18.20
2023-05-09T19:48:53.353Z,18.10
2023-05-09T19:51:23.166Z,18.10
2023-05-09T19:53:51.734Z,18.00
2023-05-09T19:56:20.144Z,18.10
2023-05-09T19:58:49.798Z,18.00
2023-05-09T20:01:19.073Z,18.00
2023-05-09T20:03:50.375Z,18.00
2023-05-09T20:06:18.904Z,18.00
2023-05-09T20:08:51.363Z,18.00
2023-05-09T20:11:19.768Z,18.00
2023-05-09T20:13:48.122Z,18.00
2023-05-09T20:16:16.528Z,18.00
2023-05-09T20:18:44.950Z,18.00
2023-05-09T20:21:13.480Z,18.00
2023-05-09T20:23:41.865Z,18.00
2023-05-09T20:26:11.667Z,17.90
2023-05-09T20:28:39.986Z,18.00
2023-05-09T20:31:08.410Z,17.90
2023-05-09T20:33:36.862Z,17.90
2023-05-09T20:36:09.444Z,18.00
2023-05-09T20:38:37.876Z,17.90
2023-05-09T20:41:06.588Z,18.00
2023-05-09T20:43:36.449Z,17.90
2023-05-09T20:46:04.887Z,17.90
2023-05-09T20:48:33.394Z,17.90
2023-05-09T20:51:01.833Z,17.90
2023-05-09T20:53:32.402Z,17.90
2023-05-09T20:56:00.831Z,18.00
2023-05-09T20:58:31.249Z,17.90
2023-05-09T21:01:01.157Z,17.90
2023-05-09T21:03:29.613Z,17.90
2023-05-09T21:05:59.217Z,17.90
2023-05-09T21:08:27.549Z,17.90
2023-05-09T21:10:56.003Z,17.90
2023-05-09T21:13:24.612Z,17.80
2023-05-09T21:15:53.066Z,17.60
2023-05-09T21:18:22.892Z,17.60
2023-05-09T21:20:51.313Z,17.50
2023-05-09T21:23:19.711Z,17.50
2023-05-09T21:25:48.100Z,17.40
2023-05-09T21:28:17.409Z,17.40
2023-05-09T21:30:51.010Z,17.40
2023-05-09T21:33:19.547Z,17.40
2023-05-09T21:35:49.344Z,17.30
2023-05-09T21:38:17.723Z,17.30
2023-05-09T21:40:46.088Z,17.30
2023-05-09T21:43:14.421Z,17.40
2023-05-09T21:45:42.780Z,17.30
2023-05-09T21:48:11.196Z,17.40
2023-05-09T21:50:39.600Z,17.30
2023-05-09T21:53:09.394Z,17.30
2023-05-09T21:55:37.809Z,17.30
2023-05-09T21:58:06.262Z,17.30
2023-05-09T22:00:34.609Z,17.30
2023-05-09T22:03:03.110Z,17.30
2023-05-09T22:05:31.504Z,17.20
2023-05-09T22:07:59.870Z,17.30
2023-05-09T22:10:29.682Z,17.20
2023-05-09T22:12:58.317Z,17.20
2023-05-09T22:15:27.147Z,17.20
2023-05-09T22:17:55.612Z,17.20
2023-05-09T22:20:24.079Z,17.20
2023-05-09T22:22:52.555Z,17.20
2023-05-09T22:25:21.000Z,17.20
2023-05-09T22:27:50.823Z,17.20
2023-05-09T22:30:19.313Z,17.30
2023-05-09T22:32:47.740Z,17.20
2023-05-09T22:35:16.154Z,17.20
2023-05-09T22:37:44.514Z,17.20
2023-05-09T22:40:13.289Z,17.10
2023-05-09T22:42:41.771Z,17.10
2023-05-09T22:45:12.264Z,17.10
2023-05-09T22:47:40.761Z,17.10
2023-05-09T22:50:09.835Z,17.00
2023-05-09T22:52:38.298Z,17.00
2023-05-09T22:55:07.207Z,17.00
2023-05-09T22:57:35.987Z,16.90
2023-05-09T23:00:04.780Z,17.00
2023-05-09T23:02:34.797Z,17.00
2023-05-09T23:05:03.418Z,17.00
2023-05-09T23:07:31.863Z,17.00
2023-05-09T23:10:00.448Z,17.00
2023-05-09T23:12:29.039Z,17.00
2023-05-09T23:14:57.493Z,16.90
2023-05-09T23:17:26.215Z,16.90
2023-05-09T23:19:56.037Z,16.90
2023-05-09T23:22:24.414Z,16.90
2023-05-09T23:24:52.845Z,17.00
2023-05-09T23:27:21.246Z,17.00
2023-05-09T23:29:49.892Z,16.90
2023-05-09T23:32:18.316Z,16.90
2023-05-09T23:34:46.799Z,16.90
2023-05-09T23:37:17.288Z,16.90
2023-05-09T23:39:45.706Z,16.80
2023-05-09T23:42:14.108Z,16.80
2023-05-09T23:44:42.702Z,16.80
2023-05-09T23:47:11.242Z,16.80
2023-05-09T23:49:39.629Z,16.80
2023-05-09T23:52:09.773Z,16.70
2023-05-09T23:54:39.992Z,16.80
2023-05-09T23:57:08.383Z,16.80
2023-05-09T23:59:36.878Z,16.80
